Terminal Aerodrome Forecast
Issued by NWS Charleston, WV

Current Version | Previous Version | Graphics & Text | Print | Product List | Glossary On
Versions: 1 2 3 4 5 6 7 8 9 10 11 12 13 14 15 16 17 18
000
FTUS41 KRLX 202000 AAA
TAFHTS
TAF AMD
KHTS 202049Z 2021/2118 01003KT P6SM BKN035
      TEMPO 2021/2024 BKN025
     FM210000 00000KT P6SM BKN025
     FM210600 00000KT P6SM BKN015
     FM211200 00000KT P6SM BKN010=

USA.gov is the U.S. government's official web portal to all federal, state and local government web resources and services.